Bedford Heights, Ohio
Current Conditions -  °F | °C
As of 10:45 PM on Thursday 20 Nov 2014 (Local Time) from KCGF Reporting Station
Light Snow Light Snow  
Wind Chill: 13°   Ceiling: 900
Heat Index: 27°   Visibility: 3mi
Dew Point: 14°   Wind: 21mph
Humidity: 59%   Direction: 290°WNW
Pressure: 30.11"   Gusts: 29mph
Location:  41.41°N, 81.5°W
Report Text: KCGF 210345Z 29018G25KT 3SM -SN BKN009 OVC025 M03/M10 A3011
Loading
Personal Weather Stations






























Interactive Weather Map New forecast layout! Learn more

10-Day Weather Forecast

Advertisements
Track Severe Weather on mobile